createdAt,value
2023-02-28T00:01:58.036Z,101870.28
2023-02-28T00:04:26.812Z,101868.41
2023-02-28T00:06:56.296Z,101856.06
2023-02-28T00:09:26.297Z,101856.16
2023-02-28T00:11:54.509Z,101857.22
2023-02-28T00:14:22.681Z,101867.75
2023-02-28T00:17:07.149Z,101854.81
2023-02-28T00:19:35.420Z,101859.13
2023-02-28T00:22:03.606Z,101858.28
2023-02-28T00:24:31.770Z,101861.03
2023-02-28T00:27:00.109Z,101855.75
2023-02-28T00:29:28.373Z,101849.75
2023-02-28T00:31:56.616Z,101848.16
2023-02-28T00:34:26.266Z,101852.56
2023-02-28T00:36:54.702Z,101851.84
2023-02-28T00:39:23.410Z,101860.47
2023-02-28T00:41:52.007Z,101856.16
2023-02-28T00:44:22.571Z,101858.06
2023-02-28T00:46:50.779Z,101864.06
2023-02-28T00:49:19.205Z,101856.16
2023-02-28T00:51:51.129Z,101858.06
2023-02-28T00:54:20.005Z,101856.50
2023-02-28T00:56:48.234Z,101851.22
2023-02-28T00:59:17.613Z,101854.06
2023-02-28T01:01:47.389Z,101851.81
2023-02-28T01:04:16.658Z,101850.97
2023-02-28T01:06:45.338Z,101850.13
2023-02-28T01:09:15.113Z,101852.97
2023-02-28T01:11:45.124Z,101847.94
2023-02-28T01:14:16.082Z,101840.44
2023-02-28T01:16:44.920Z,101848.66
2023-02-28T01:19:13.535Z,101850.13
2023-02-28T01:21:41.862Z,101850.97
2023-02-28T01:24:10.197Z,101850.13
2023-02-28T01:26:39.866Z,101848.44
2023-02-28T01:29:08.083Z,101847.50
2023-02-28T01:31:36.516Z,101844.94
2023-02-28T01:34:05.252Z,101846.03
2023-02-28T01:36:33.598Z,101839.06
2023-02-28T01:39:02.084Z,101838.31
2023-02-28T01:41:32.821Z,101839.47
2023-02-28T01:44:06.946Z,101825.25
2023-02-28T01:46:37.451Z,101834.09
2023-02-28T01:49:10.940Z,101828.00
2023-02-28T01:51:51.981Z,101824.63
2023-02-28T01:54:24.932Z,101821.03
2023-02-28T01:56:59.175Z,101826.31
2023-02-28T01:59:34.459Z,101817.66
2023-02-28T02:02:05.581Z,101820.19
2023-02-28T02:04:39.750Z,101821.13
2023-02-28T02:07:08.495Z,101813.22
2023-02-28T02:09:36.928Z,101814.09
2023-02-28T02:12:16.621Z,101801.34
2023-02-28T02:15:01.076Z,101809.66
2023-02-28T02:17:37.778Z,101803.66
2023-02-28T02:20:40.975Z,101800.25
2023-02-28T02:23:41.964Z,101803.75
2023-02-28T02:26:32.326Z,101803.84
2023-02-28T02:29:32.140Z,101804.81
2023-02-28T02:32:43.306Z,101809.09
2023-02-28T02:35:20.716Z,101807.56
2023-02-28T02:37:52.843Z,101800.59
2023-02-28T02:40:24.607Z,101809.09
2023-02-28T02:42:58.822Z,101803.84
2023-02-28T02:45:36.893Z,101803.03
2023-02-28T02:48:08.948Z,101793.53
2023-02-28T02:50:41.809Z,101802.47
2023-02-28T02:53:12.717Z,101797.41
2023-02-28T02:55:43.701Z,101794.03
2023-02-28T02:58:17.902Z,101793.44
2023-02-28T03:00:50.766Z,101781.59
2023-02-28T03:03:29.825Z,101801.53
2023-02-28T03:06:01.400Z,101804.16
2023-02-28T03:08:31.730Z,101793.63
2023-02-28T03:11:02.897Z,101799.72
2023-02-28T03:14:11.012Z,101798.78
2023-02-28T03:17:01.452Z,101790.03
2023-02-28T03:19:40.867Z,101786.47
2023-02-28T03:22:33.364Z,101801.31
2023-02-28T03:25:11.448Z,101802.16
2023-02-28T03:27:44.647Z,101801.19
2023-02-28T03:30:21.286Z,101792.59
2023-02-28T03:32:55.247Z,101787.94
2023-02-28T03:35:27.098Z,101800.34
2023-02-28T03:38:07.832Z,101799.53
2023-02-28T03:40:39.294Z,101804.66
2023-02-28T03:43:14.504Z,101793.28
2023-02-28T03:45:46.255Z,101801.94
2023-02-28T03:48:18.849Z,101799.31
2023-02-28T03:50:50.342Z,101802.78
2023-02-28T03:53:24.732Z,101803.63
2023-02-28T03:55:56.832Z,101794.03
2023-02-28T03:58:32.355Z,101793.09
2023-02-28T04:01:09.729Z,101797.41
2023-02-28T04:03:38.989Z,101784.25
2023-02-28T04:06:10.603Z,101784.16
2023-02-28T04:08:40.364Z,101791.00
2023-02-28T04:11:25.218Z,101790.06
2023-02-28T04:13:53.568Z,101792.59
2023-02-28T04:16:35.501Z,101799.56
2023-02-28T04:19:06.319Z,101798.56
2023-02-28T04:21:37.470Z,101790.69
2023-02-28T04:24:08.282Z,101788.28
2023-02-28T04:26:39.723Z,101787.34
2023-02-28T04:29:09.288Z,101792.69
2023-02-28T04:31:37.652Z,101803.13
2023-02-28T04:34:06.249Z,101803.75
2023-02-28T04:36:34.972Z,101789.44
2023-02-28T04:39:03.359Z,101796.38
2023-02-28T04:41:34.043Z,101792.72
2023-02-28T04:44:02.488Z,101787.44
2023-02-28T04:46:31.577Z,101784.72
2023-02-28T04:49:00.468Z,101781.97
2023-02-28T04:51:29.207Z,101773.00
2023-02-28T04:53:58.151Z,101772.69
2023-02-28T04:56:26.525Z,101779.34
2023-02-28T04:58:56.250Z,101775.53
2023-02-28T05:01:27.333Z,101773.53
2023-02-28T05:03:57.921Z,101769.09
2023-02-28T05:06:27.782Z,101772.59
2023-02-28T05:08:57.644Z,101781.44
2023-02-28T05:11:28.019Z,101775.41
2023-02-28T05:13:58.607Z,101777.31
2023-02-28T05:16:27.325Z,101787.00
2023-02-28T05:18:55.551Z,101791.44
2023-02-28T05:21:32.613Z,101790.81
2023-02-28T05:24:03.283Z,101789.03
2023-02-28T05:26:32.388Z,101792.72
2023-02-28T05:29:01.936Z,101790.09
2023-02-28T05:31:30.493Z,101792.81
2023-02-28T05:33:58.958Z,101781.44
2023-02-28T05:36:27.327Z,101776.91
2023-02-28T05:38:55.550Z,101779.53
2023-02-28T05:41:24.413Z,101769.00
2023-02-28T05:43:52.581Z,101770.16
2023-02-28T05:46:22.614Z,101784.81
2023-02-28T05:48:51.484Z,101790.09
2023-02-28T05:51:20.224Z,101787.56
2023-02-28T05:53:49.601Z,101791.88
2023-02-28T05:56:17.962Z,101790.09
2023-02-28T05:58:46.256Z,101793.66
2023-02-28T06:01:33.654Z,101791.97
2023-02-28T06:04:02.656Z,101807.38
2023-02-28T06:06:31.804Z,101801.03
2023-02-28T06:09:00.393Z,101806.00
2023-02-28T06:11:29.565Z,101802.22
2023-02-28T06:13:58.637Z,101798.19
2023-02-28T06:16:29.817Z,101799.66
2023-02-28T06:19:00.309Z,101815.16
2023-02-28T06:21:29.808Z,101810.41
2023-02-28T06:23:58.944Z,101818.94
2023-02-28T06:26:27.502Z,101817.91
2023-02-28T06:28:55.825Z,101831.69
2023-02-28T06:31:26.982Z,101833.38
2023-02-28T06:33:56.939Z,101840.97
2023-02-28T06:36:25.118Z,101836.44
2023-02-28T06:38:56.154Z,101833.69
2023-02-28T06:41:25.511Z,101834.53
2023-02-28T06:43:54.614Z,101824.84
2023-02-28T06:46:23.436Z,101829.16
2023-02-28T06:48:51.776Z,101819.56
2023-02-28T06:51:23.463Z,101831.16
2023-02-28T06:53:52.054Z,101837.91
2023-02-28T06:56:21.452Z,101841.25
2023-02-28T06:58:50.760Z,101836.50
2023-02-28T07:01:20.198Z,101838.09
2023-02-28T07:03:53.394Z,101848.53
2023-02-28T07:06:25.131Z,101846.72
2023-02-28T07:08:56.033Z,101852.31
2023-02-28T07:11:26.925Z,101856.41
2023-02-28T07:13:55.549Z,101854.63
2023-02-28T07:16:24.877Z,101862.31
2023-02-28T07:18:55.219Z,101865.25
2023-02-28T07:21:25.089Z,101856.88
2023-02-28T07:23:53.790Z,101852.84
2023-02-28T07:26:23.228Z,101859.13
2023-02-28T07:28:52.547Z,101867.22
2023-02-28T07:31:21.219Z,101863.81
2023-02-28T07:33:49.873Z,101861.34
2023-02-28T07:36:19.783Z,101861.28
2023-02-28T07:38:51.299Z,101853.59
2023-02-28T07:41:20.604Z,101861.72
2023-02-28T07:43:49.653Z,101848.75
2023-02-28T07:46:21.346Z,101855.13
2023-02-28T07:48:49.561Z,101850.22
2023-02-28T07:51:19.309Z,101849.50
2023-02-28T07:53:49.057Z,101853.38
2023-02-28T07:56:17.308Z,101849.28
2023-02-28T07:58:45.436Z,101852.56
2023-02-28T08:01:14.694Z,101861.94
2023-02-28T08:03:43.288Z,101847.28
2023-02-28T08:06:19.763Z,101843.16
2023-02-28T08:08:50.805Z,101849.44
2023-02-28T08:11:20.612Z,101841.25
2023-02-28T08:13:49.025Z,101834.50
2023-02-28T08:16:22.497Z,101838.84
2023-02-28T08:18:52.133Z,101841.13
2023-02-28T08:21:21.883Z,101838.22
2023-02-28T08:23:52.405Z,101833.28
2023-02-28T08:26:21.472Z,101829.31
2023-02-28T08:28:49.805Z,101830.88
2023-02-28T08:31:19.550Z,101832.06
2023-02-28T08:33:49.755Z,101831.56
2023-02-28T08:36:18.174Z,101838.91
2023-02-28T08:38:47.244Z,101837.41
2023-02-28T08:41:18.909Z,101832.22
2023-02-28T08:43:47.620Z,101830.63
2023-02-28T08:46:16.261Z,101839.13
2023-02-28T08:48:45.085Z,101830.16
2023-02-28T08:51:17.402Z,101829.97
2023-02-28T08:53:46.055Z,101833.41
2023-02-28T08:56:17.722Z,101835.72
2023-02-28T08:58:47.599Z,101826.72
2023-02-28T09:01:18.332Z,101834.47
2023-02-28T09:03:48.371Z,101832.69
2023-02-28T09:06:19.711Z,101831.50
2023-02-28T09:08:56.705Z,101833.06
2023-02-28T09:11:26.539Z,101829.63
2023-02-28T09:13:54.852Z,101841.13
2023-02-28T09:16:23.463Z,101849.28
2023-02-28T09:18:52.250Z,101849.84
2023-02-28T09:21:21.687Z,101847.34
2023-02-28T09:23:52.520Z,101844.44
2023-02-28T09:26:23.322Z,101840.97
2023-02-28T09:28:53.688Z,101845.72
2023-02-28T09:31:24.634Z,101844.19
2023-02-28T09:33:57.482Z,101849.66
2023-02-28T09:36:41.556Z,101846.31
2023-02-28T09:39:13.266Z,101843.63
2023-02-28T09:41:48.650Z,101843.63
2023-02-28T09:44:23.698Z,101847.94
2023-02-28T09:46:56.741Z,101844.47
2023-02-28T09:49:27.874Z,101833.94
2023-02-28T09:52:01.344Z,101839.09
2023-02-28T09:54:32.323Z,101841.19
2023-02-28T09:57:04.307Z,101838.50
2023-02-28T09:59:56.590Z,101832.59
2023-02-28T10:02:47.600Z,101832.41
2023-02-28T10:05:21.675Z,101832.41
2023-02-28T10:08:06.153Z,101834.06
2023-02-28T10:10:41.829Z,101843.13
2023-02-28T10:13:19.263Z,101832.72
2023-02-28T10:15:54.921Z,101846.69
2023-02-28T10:18:28.069Z,101849.00
2023-02-28T10:20:58.676Z,101841.50
2023-02-28T10:23:30.545Z,101843.56
2023-02-28T10:26:03.594Z,101838.03
2023-02-28T10:28:33.300Z,101837.41
2023-02-28T10:31:03.272Z,101828.25
2023-02-28T10:33:35.359Z,101830.66
2023-02-28T10:36:07.905Z,101831.56
2023-02-28T10:38:42.117Z,101832.13
2023-02-28T10:41:12.358Z,101837.44
2023-02-28T10:44:00.700Z,101837.44
2023-02-28T10:46:35.557Z,101834.16
2023-02-28T10:49:07.786Z,101827.53
2023-02-28T10:51:40.760Z,101823.44
2023-02-28T10:54:18.187Z,101820.75
2023-02-28T10:57:09.732Z,101815.94
2023-02-28T11:00:03.580Z,101810.81
2023-02-28T11:02:39.483Z,101802.22
2023-02-28T11:05:30.049Z,101801.81
2023-02-28T11:08:01.958Z,101795.06
2023-02-28T11:10:35.860Z,101796.78
2023-02-28T11:13:05.414Z,101795.94
2023-02-28T11:15:38.099Z,101792.97
2023-02-28T11:18:23.380Z,101787.09
2023-02-28T11:20:53.142Z,101777.63
2023-02-28T11:23:22.900Z,101774.09
2023-02-28T11:25:56.198Z,101779.09
2023-02-28T11:28:30.690Z,101771.78
2023-02-28T11:31:08.754Z,101765.75
2023-02-28T11:33:46.187Z,101774.75
2023-02-28T11:36:19.469Z,101764.88
2023-02-28T11:38:50.584Z,101756.34
2023-02-28T11:41:40.849Z,101744.34
2023-02-28T11:44:26.942Z,101747.00
2023-02-28T11:47:18.679Z,101747.47
2023-02-28T11:49:59.500Z,101744.66
2023-02-28T11:52:40.200Z,101751.81
2023-02-28T11:55:19.014Z,101754.81
2023-02-28T11:58:03.316Z,101756.56
2023-02-28T12:01:06.381Z,101749.72
2023-02-28T12:03:55.134Z,101744.59
2023-02-28T12:06:50.652Z,101744.56
2023-02-28T12:09:36.809Z,101738.06
2023-02-28T12:12:18.007Z,101734.56
2023-02-28T12:15:22.012Z,101736.91
2023-02-28T12:18:02.028Z,101736.75
2023-02-28T12:20:40.498Z,101739.56
2023-02-28T12:23:29.586Z,101736.38
2023-02-28T12:26:16.607Z,101745.06
2023-02-28T12:28:48.628Z,101746.44
2023-02-28T12:31:24.169Z,101743.47
2023-02-28T12:34:03.818Z,101743.47
2023-02-28T12:36:32.264Z,101745.13
2023-02-28T12:39:06.109Z,101739.59
2023-02-28T12:41:42.680Z,101745.28
2023-02-28T12:44:14.793Z,101744.94
2023-02-28T12:46:46.776Z,101742.94
2023-02-28T12:49:24.042Z,101744.63
2023-02-28T12:51:53.218Z,101741.63
2023-02-28T12:54:31.472Z,101743.63
2023-02-28T12:57:15.028Z,101732.44
2023-02-28T12:59:47.621Z,101735.16
2023-02-28T13:02:48.856Z,101731.16
2023-02-28T13:05:41.629Z,101720.66
2023-02-28T13:08:45.141Z,101726.84
2023-02-28T13:11:28.615Z,101723.66
2023-02-28T13:14:02.384Z,101731.81
2023-02-28T13:16:49.873Z,101729.81
2023-02-28T13:19:20.693Z,101734.50
2023-02-28T13:21:50.833Z,101739.19
2023-02-28T13:24:44.833Z,101736.31
2023-02-28T13:27:41.693Z,101742.16
2023-02-28T13:30:47.569Z,101746.00
2023-02-28T13:33:28.446Z,101740.44
2023-02-28T13:36:27.162Z,101745.22
2023-02-28T13:38:56.581Z,101739.88
2023-02-28T13:41:57.267Z,101745.34
2023-02-28T13:44:27.933Z,101745.66
2023-02-28T13:47:26.009Z,101744.84
2023-02-28T13:49:55.000Z,101741.31
2023-02-28T13:52:26.489Z,101749.03
2023-02-28T13:55:26.505Z,101745.66
2023-02-28T13:58:21.339Z,101745.50
2023-02-28T14:01:14.447Z,101739.03
2023-02-28T14:04:21.834Z,101732.84
2023-02-28T14:06:53.039Z,101724.16
2023-02-28T14:09:27.475Z,101723.63
2023-02-28T14:11:55.884Z,101715.81
2023-02-28T14:14:57.713Z,101719.28
2023-02-28T14:17:29.742Z,101720.97
2023-02-28T14:20:00.987Z,101720.31
2023-02-28T14:22:54.700Z,101703.75
2023-02-28T14:25:34.753Z,101706.44
2023-02-28T14:28:16.332Z,101700.25
2023-02-28T14:31:08.954Z,101693.25
2023-02-28T14:33:50.697Z,101690.56
2023-02-28T14:36:24.055Z,101697.75
2023-02-28T14:38:55.267Z,101699.72
2023-02-28T14:41:28.378Z,101691.88
2023-02-28T14:43:59.273Z,101690.72
2023-02-28T14:46:39.769Z,101694.56
2023-02-28T14:49:18.200Z,101684.88
2023-02-28T14:51:49.277Z,101690.84
2023-02-28T14:54:21.248Z,101690.19
2023-02-28T14:56:52.515Z,101696.66
2023-02-28T14:59:30.413Z,101694.97
2023-02-28T15:02:18.304Z,101684.13
2023-02-28T15:04:55.780Z,101690.75
2023-02-28T15:07:30.612Z,101680.25
2023-02-28T15:10:12.299Z,101673.72
2023-02-28T15:12:42.883Z,101679.53
2023-02-28T15:15:18.173Z,101678.00
2023-02-28T15:17:49.175Z,101678.94
2023-02-28T15:20:20.548Z,101674.59
2023-02-28T15:22:51.548Z,101682.75
2023-02-28T15:25:23.624Z,101683.38
2023-02-28T15:27:54.711Z,101684.69
2023-02-28T15:30:27.391Z,101690.59
2023-02-28T15:33:09.497Z,101702.75
2023-02-28T15:35:40.707Z,101696.03
2023-02-28T15:38:19.775Z,101699.84
2023-02-28T15:43:41.882Z,101707.69
2023-02-28T15:46:12.375Z,101706.50
2023-02-28T15:48:46.988Z,101710.59
2023-02-28T15:51:20.868Z,101701.84
2023-02-28T15:53:57.214Z,101705.41
2023-02-28T15:56:28.357Z,101713.16
2023-02-28T15:58:58.327Z,101711.91
2023-02-28T16:01:29.564Z,101705.81
2023-02-28T16:04:06.982Z,101697.34
2023-02-28T16:06:40.318Z,101709.59
2023-02-28T16:09:12.901Z,101708.50
2023-02-28T16:11:44.953Z,101710.22
2023-02-28T16:14:19.855Z,101709.28
2023-02-28T16:16:50.721Z,101705.53
2023-02-28T16:19:19.048Z,101697.72
2023-02-28T16:21:49.177Z,101700.28
2023-02-28T16:24:17.513Z,101699.19
2023-02-28T16:26:49.578Z,101713.22
2023-02-28T16:29:25.634Z,101710.25
2023-02-28T16:31:54.642Z,101716.03
2023-02-28T16:34:23.424Z,101722.06
2023-02-28T16:36:53.397Z,101719.25
2023-02-28T16:39:22.427Z,101713.97
2023-02-28T16:41:52.936Z,101713.84
2023-02-28T16:44:29.275Z,101718.44
2023-02-28T16:46:58.432Z,101707.66
2023-02-28T16:49:27.185Z,101709.31
2023-02-28T16:51:56.907Z,101714.19
2023-02-28T16:54:25.064Z,101710.41
2023-02-28T16:56:53.276Z,101714.44
2023-02-28T16:59:26.215Z,101715.16
2023-02-28T17:01:55.033Z,101707.97
2023-02-28T17:04:23.273Z,101714.81
2023-02-28T17:06:53.216Z,101713.84
2023-02-28T17:09:40.096Z,101711.84
2023-02-28T17:12:10.404Z,101708.31
2023-02-28T17:14:38.861Z,101709.97
2023-02-28T17:17:07.368Z,101710.88
2023-02-28T17:19:37.209Z,101703.59
2023-02-28T17:22:12.906Z,101708.03
2023-02-28T17:24:42.775Z,101709.50
2023-02-28T17:27:14.696Z,101709.47
2023-02-28T17:29:43.274Z,101714.47
2023-02-28T17:32:17.979Z,101708.81
2023-02-28T17:34:47.374Z,101708.50
2023-02-28T17:37:15.707Z,101716.84
2023-02-28T17:39:45.416Z,101711.78
2023-02-28T17:42:24.800Z,101718.91
2023-02-28T17:44:53.072Z,101717.22
2023-02-28T17:47:21.462Z,101712.75
2023-02-28T17:49:49.902Z,101712.63
2023-02-28T17:52:18.104Z,101712.75
2023-02-28T17:54:47.618Z,101712.50
2023-02-28T17:57:17.898Z,101709.84
2023-02-28T17:59:46.382Z,101707.22
2023-02-28T18:02:16.404Z,101708.31
2023-02-28T18:04:44.644Z,101711.31
2023-02-28T18:07:14.813Z,101707.03
2023-02-28T18:09:44.690Z,101710.16
2023-02-28T18:12:14.904Z,101695.31
2023-02-28T18:14:43.516Z,101713.84
2023-02-28T18:17:24.153Z,101702.91
2023-02-28T18:19:52.652Z,101716.41
2023-02-28T18:22:20.914Z,101711.50
2023-02-28T18:24:49.379Z,101715.22
2023-02-28T18:27:19.106Z,101706.69
2023-02-28T18:29:47.281Z,101718.53
2023-02-28T18:32:22.692Z,101716.00
2023-02-28T18:35:06.133Z,101707.56
2023-02-28T18:37:34.273Z,101704.09
2023-02-28T18:40:05.575Z,101710.47
2023-02-28T18:42:35.841Z,101713.38
2023-02-28T18:45:04.257Z,101715.56
2023-02-28T18:47:32.449Z,101711.59
2023-02-28T18:50:01.833Z,101712.59
2023-02-28T18:52:30.252Z,101713.78
2023-02-28T18:54:58.478Z,101714.03
2023-02-28T18:57:26.917Z,101714.25
2023-02-28T18:59:56.721Z,101717.31
2023-02-28T19:02:24.894Z,101713.94
2023-02-28T19:04:53.413Z,101714.06
2023-02-28T19:07:21.885Z,101712.50
2023-02-28T19:09:50.028Z,101718.84
2023-02-28T19:12:20.775Z,101709.25
2023-02-28T19:14:48.927Z,101707.44
2023-02-28T19:17:18.560Z,101712.16
2023-02-28T19:19:46.779Z,101719.13
2023-02-28T19:22:15.019Z,101717.56
2023-02-28T19:24:43.188Z,101709.88
2023-02-28T19:27:14.581Z,101707.34
2023-02-28T19:29:42.740Z,101709.38
2023-02-28T19:32:11.084Z,101714.94
2023-02-28T19:34:40.828Z,101711.69
2023-02-28T19:37:09.127Z,101709.16
2023-02-28T19:39:42.217Z,101705.06
2023-02-28T19:42:11.550Z,101704.34
2023-02-28T19:44:39.879Z,101706.28
2023-02-28T19:47:08.514Z,101701.22
2023-02-28T19:49:36.740Z,101717.94
2023-02-28T19:52:07.474Z,101717.94
2023-02-28T19:54:36.410Z,101703.03
2023-02-28T19:57:04.911Z,101707.72
2023-02-28T19:59:39.514Z,101710.34
2023-02-28T20:02:14.366Z,101706.25
2023-02-28T20:04:42.963Z,101707.50
2023-02-28T20:07:12.611Z,101698.09
2023-02-28T20:09:41.148Z,101700.75
2023-02-28T20:12:23.108Z,101706.16
2023-02-28T20:14:52.170Z,101706.16
2023-02-28T20:17:20.717Z,101704.59
2023-02-28T20:19:49.890Z,101704.00
2023-02-28T20:22:19.793Z,101704.00
2023-02-28T20:24:48.742Z,101701.47
2023-02-28T20:27:17.426Z,101710.25
2023-02-28T20:29:45.976Z,101702.31
2023-02-28T20:32:14.508Z,101698.44
2023-02-28T20:34:42.941Z,101707.72
2023-02-28T20:37:11.472Z,101710.47
2023-02-28T20:39:43.849Z,101700.75
2023-02-28T20:42:12.104Z,101704.69
2023-02-28T20:44:40.305Z,101712.38
2023-02-28T20:47:08.509Z,101708.06
2023-02-28T20:49:36.725Z,101712.50
2023-02-28T20:52:07.662Z,101713.34
2023-02-28T20:54:36.474Z,101715.03
2023-02-28T20:57:06.197Z,101713.34
2023-02-28T20:59:34.633Z,101710.94
2023-02-28T21:02:02.922Z,101706.59
2023-02-28T21:04:33.525Z,101708.78
2023-02-28T21:07:03.284Z,101713.00
2023-02-28T21:09:31.958Z,101709.63
2023-02-28T21:12:00.768Z,101710.69
2023-02-28T21:14:32.186Z,101713.34
2023-02-28T21:17:00.647Z,101710.81
2023-02-28T21:19:28.894Z,101711.03
2023-02-28T21:21:57.102Z,101723.28
2023-02-28T21:24:25.670Z,101708.66
2023-02-28T21:26:54.135Z,101718.97
2023-02-28T21:29:22.405Z,101709.47
2023-02-28T21:31:53.978Z,101711.53
2023-02-28T21:34:22.328Z,101720.41
2023-02-28T21:36:50.602Z,101723.28
2023-02-28T21:39:25.951Z,101716.53
2023-02-28T21:41:55.008Z,101725.56
2023-02-28T21:44:28.271Z,101721.22
2023-02-28T21:47:02.222Z,101712.69
2023-02-28T21:49:30.898Z,101723.75
2023-02-28T21:52:00.038Z,101732.63
2023-02-28T21:54:28.485Z,101737.06
2023-02-28T21:56:57.504Z,101738.03
2023-02-28T21:59:26.246Z,101737.06
2023-02-28T22:01:55.243Z,101723.03
2023-02-28T22:04:25.587Z,101738.88
2023-02-28T22:06:57.301Z,101742.56
2023-02-28T22:09:26.234Z,101733.09
2023-02-28T22:11:55.572Z,101731.50
2023-02-28T22:14:23.850Z,101737.00
2023-02-28T22:16:55.155Z,101743.50
2023-02-28T22:19:27.729Z,101737.50
2023-02-28T22:21:56.534Z,101744.56
2023-02-28T22:24:25.805Z,101731.59
2023-02-28T22:26:54.603Z,101739.50
2023-02-28T22:29:23.200Z,101734.34
2023-02-28T22:31:52.054Z,101740.56
2023-02-28T22:34:20.383Z,101743.09
2023-02-28T22:36:50.034Z,101737.94
2023-02-28T22:39:18.209Z,101745.75
2023-02-28T22:41:47.113Z,101741.53
2023-02-28T22:44:16.523Z,101737.94
2023-02-28T22:46:44.707Z,101738.88
2023-02-28T22:49:13.016Z,101734.44
2023-02-28T22:51:41.591Z,101734.59
2023-02-28T22:54:11.915Z,101741.78
2023-02-28T22:56:40.215Z,101743.78
2023-02-28T22:59:08.429Z,101737.91
2023-02-28T23:01:37.135Z,101742.44
2023-02-28T23:04:06.054Z,101746.38
2023-02-28T23:06:37.896Z,101742.19
2023-02-28T23:09:08.481Z,101742.59
2023-02-28T23:11:42.721Z,101756.06
2023-02-28T23:14:13.020Z,101746.88
2023-02-28T23:16:43.598Z,101747.09
2023-02-28T23:19:16.147Z,101751.88
2023-02-28T23:21:45.546Z,101745.03
2023-02-28T23:24:16.234Z,101747.78
2023-02-28T23:26:50.694Z,101748.84
2023-02-28T23:29:20.907Z,101751.72
2023-02-28T23:31:50.201Z,101760.47
2023-02-28T23:34:26.503Z,101759.72
2023-02-28T23:36:56.160Z,101761.53
2023-02-28T23:39:25.863Z,101762.47
2023-02-28T23:41:56.213Z,101770.50
2023-02-28T23:44:25.885Z,101774.81
2023-02-28T23:46:54.808Z,101759.09
2023-02-28T23:49:23.869Z,101769.66
2023-02-28T23:51:54.481Z,101764.47
2023-02-28T23:54:22.997Z,101759.94
2023-02-28T23:56:51.228Z,101765.31
2023-02-28T23:59:21.076Z,101765.53
